UACC/TSE METAR and TAF weather

Enter ICAO airport designator
Station Type Date Time Source
UACC METAR 2022/01/26 14:00 UTC NOAA

UACC 261400Z 25004MPS 6000 FEW010 M18/M20 Q1029 NOSIG RMK QFE740/0987


Station Type Date Time Source
UACC Decoded METAR 2022/01/26 14:00 UTC NOAA

Astana, Kazakhstan (UACC) 51-12N 071-27E
Jan 26, 2022 - 09:00 AM EST / 2022.01.26 1400 UTC
Wind: from the WSW (250 degrees) at 9 MPH (8 KT):0
Visibility: 3 mile(s):0
Sky conditions: mostly clear
Temperature: 0 F (-18 C)
Windchill: -14 F (-26 C):2
Dew Point: -4 F (-20 C)
Relative Humidity: 84%
Pressure (altimeter): 30.39 in. Hg (1029 hPa)
ob: UACC 261400Z 25004MPS 6000 FEW010 M18/M20 Q1029 NOSIG RMK QFE740/0987
cycle: 14

Station Type Date Time Source
UACC TAF 2022/01/26 12:22 UTC NOAA

TAF UACC 261101Z 2612/2712 23004MPS 3100 BR SCT005 BKN011 TXM13/2709Z TNM25/2701Z
TEMPO 2612/2624 VRB02MPS 0200 -SG FZFG VV001
TEMPO 2700/2704 VRB02MPS 0200 FZFG VV002
FM270600 19004MPS 9999 FEW005 SCT011 BKN020

Example: see airport list